sensor_id;sensor_type;location;lat;lon;timestamp;temperature;humidity
48920;DHT22;34730;50.894;6.052;2022-07-23T00:00:08;17.00;99.90
48920;DHT22;34730;50.894;6.052;2022-07-23T00:00:39;17.00;99.90
48920;DHT22;34730;50.894;6.052;2022-07-23T00:01:10;17.00;99.90
48920;DHT22;34730;50.894;6.052;2022-07-23T00:01:41;17.00;99.90
48920;DHT22;34730;50.894;6.052;2022-07-23T00:02:12;17.00;99.90
48920;DHT22;34730;50.894;6.052;2022-07-23T00:02:43;16.90;99.90
48920;DHT22;34730;50.894;6.052;2022-07-23T00:03:14;16.90;99.90
48920;DHT22;34730;50.894;6.052;2022-07-23T00:03:45;17.00;99.90
48920;DHT22;34730;50.894;6.052;2022-07-23T00:04:15;16.90;99.90
48920;DHT22;34730;50.894;6.052;2022-07-23T00:04:46;16.90;99.90
48920;DHT22;34730;50.894;6.052;2022-07-23T00:05:17;17.00;99.90
48920;DHT22;34730;50.894;6.052;2022-07-23T00:05:48;17.00;99.90
48920;DHT22;34730;50.894;6.052;2022-07-23T00:06:19;17.00;99.90
48920;DHT22;34730;50.894;6.052;2022-07-23T00:06:50;17.00;99.90
48920;DHT22;34730;50.894;6.052;2022-07-23T00:07:21;17.00;99.90
48920;DHT22;34730;50.894;6.052;2022-07-23T00:07:52;17.00;99.90
48920;DHT22;34730;50.894;6.052;2022-07-23T00:08:22;16.90;99.90
48920;DHT22;34730;50.894;6.052;2022-07-23T00:08:54;16.90;99.90
48920;DHT22;34730;50.894;6.052;2022-07-23T00:09:27;17.00;99.90
48920;DHT22;34730;50.894;6.052;2022-07-23T00:10:02;17.00;99.90
48920;DHT22;34730;50.894;6.052;2022-07-23T00:10:34;16.90;99.90
48920;DHT22;34730;50.894;6.052;2022-07-23T00:11:05;16.90;99.90
48920;DHT22;34730;50.894;6.052;2022-07-23T00:11:35;16.90;99.90
48920;DHT22;34730;50.894;6.052;2022-07-23T00:12:06;16.90;99.90
48920;DHT22;34730;50.894;6.052;2022-07-23T00:12:40;17.00;99.90
48920;DHT22;34730;50.894;6.052;2022-07-23T00:13:11;17.00;99.90
48920;DHT22;34730;50.894;6.052;2022-07-23T00:13:42;17.10;99.90
48920;DHT22;34730;50.894;6.052;2022-07-23T00:14:15;17.00;99.90
48920;DHT22;34730;50.894;6.052;2022-07-23T00:14:48;17.00;99.90
48920;DHT22;34730;50.894;6.052;2022-07-23T00:15:19;17.00;99.90
48920;DHT22;34730;50.894;6.052;2022-07-23T00:15:50;17.00;99.90
48920;DHT22;34730;50.894;6.052;2022-07-23T00:16:24;17.00;99.90
48920;DHT22;34730;50.894;6.052;2022-07-23T00:16:54;16.90;99.90
48920;DHT22;34730;50.894;6.052;2022-07-23T00:17:25;17.00;99.90
48920;DHT22;34730;50.894;6.052;2022-07-23T00:17:56;17.00;99.90
48920;DHT22;34730;50.894;6.052;2022-07-23T00:18:27;17.00;99.90
48920;DHT22;34730;50.894;6.052;2022-07-23T00:18:58;16.90;99.90
48920;DHT22;34730;50.894;6.052;2022-07-23T00:19:31;16.80;99.90
48920;DHT22;34730;50.894;6.052;2022-07-23T00:20:03;16.90;99.90
48920;DHT22;34730;50.894;6.052;2022-07-23T00:20:34;16.90;99.90
48920;DHT22;34730;50.894;6.052;2022-07-23T00:21:05;16.90;99.90
48920;DHT22;34730;50.894;6.052;2022-07-23T00:21:36;16.90;99.90
48920;DHT22;34730;50.894;6.052;2022-07-23T00:22:07;16.80;99.90
48920;DHT22;34730;50.894;6.052;2022-07-23T00:22:52;16.80;99.90
48920;DHT22;34730;50.894;6.052;2022-07-23T00:23:22;16.80;99.90
48920;DHT22;34730;50.894;6.052;2022-07-23T00:23:56;16.80;99.90
48920;DHT22;34730;50.894;6.052;2022-07-23T00:24:26;16.70;99.90
48920;DHT22;34730;50.894;6.052;2022-07-23T00:24:57;16.70;99.90
48920;DHT22;34730;50.894;6.052;2022-07-23T00:25:28;16.70;99.90
48920;DHT22;34730;50.894;6.052;2022-07-23T00:25:59;16.70;99.90
48920;DHT22;34730;50.894;6.052;2022-07-23T00:26:31;16.70;99.90
48920;DHT22;34730;50.894;6.052;2022-07-23T00:27:01;16.70;99.90
48920;DHT22;34730;50.894;6.052;2022-07-23T00:27:32;16.60;99.90
48920;DHT22;34730;50.894;6.052;2022-07-23T00:28:04;16.70;99.90
48920;DHT22;34730;50.894;6.052;2022-07-23T00:28:35;16.70;99.90
48920;DHT22;34730;50.894;6.052;2022-07-23T00:29:06;16.60;99.90
48920;DHT22;34730;50.894;6.052;2022-07-23T00:29:38;16.60;99.90
48920;DHT22;34730;50.894;6.052;2022-07-23T00:30:09;16.60;99.90
48920;DHT22;34730;50.894;6.052;2022-07-23T00:30:41;16.60;99.90
48920;DHT22;34730;50.894;6.052;2022-07-23T00:31:12;16.60;99.90
48920;DHT22;34730;50.894;6.052;2022-07-23T00:31:42;16.60;99.90
48920;DHT22;34730;50.894;6.052;2022-07-23T00:32:14;16.60;99.90
48920;DHT22;34730;50.894;6.052;2022-07-23T00:32:50;16.60;99.90
48920;DHT22;34730;50.894;6.052;2022-07-23T00:33:21;16.60;99.90
48920;DHT22;34730;50.894;6.052;2022-07-23T00:33:51;16.50;99.90
48920;DHT22;34730;50.894;6.052;2022-07-23T00:34:23;16.50;99.90
48920;DHT22;34730;50.894;6.052;2022-07-23T00:34:53;16.50;99.90
48920;DHT22;34730;50.894;6.052;2022-07-23T00:35:26;16.40;99.90
48920;DHT22;34730;50.894;6.052;2022-07-23T00:35:57;16.40;99.90
48920;DHT22;34730;50.894;6.052;2022-07-23T00:36:28;16.40;99.90
48920;DHT22;34730;50.894;6.052;2022-07-23T00:36:59;16.40;99.90
48920;DHT22;34730;50.894;6.052;2022-07-23T00:37:30;16.40;99.90
48920;DHT22;34730;50.894;6.052;2022-07-23T00:38:02;16.40;99.90
48920;DHT22;34730;50.894;6.052;2022-07-23T00:38:33;16.30;99.90
48920;DHT22;34730;50.894;6.052;2022-07-23T00:39:07;16.30;99.90
48920;DHT22;34730;50.894;6.052;2022-07-23T00:39:38;16.30;99.90
48920;DHT22;34730;50.894;6.052;2022-07-23T00:40:11;16.30;99.90
48920;DHT22;34730;50.894;6.052;2022-07-23T00:40:42;16.30;99.90
48920;DHT22;34730;50.894;6.052;2022-07-23T00:41:13;16.30;99.90
48920;DHT22;34730;50.894;6.052;2022-07-23T00:41:44;16.30;99.90
48920;DHT22;34730;50.894;6.052;2022-07-23T00:42:15;16.20;99.90
48920;DHT22;34730;50.894;6.052;2022-07-23T00:42:46;16.30;99.90
48920;DHT22;34730;50.894;6.052;2022-07-23T00:43:16;16.20;99.90
48920;DHT22;34730;50.894;6.052;2022-07-23T00:43:48;16.20;99.90
48920;DHT22;34730;50.894;6.052;2022-07-23T00:44:21;16.20;99.90
48920;DHT22;34730;50.894;6.052;2022-07-23T00:44:51;16.20;99.90
48920;DHT22;34730;50.894;6.052;2022-07-23T00:45:22;16.20;99.90
48920;DHT22;34730;50.894;6.052;2022-07-23T00:45:53;16.20;99.90
48920;DHT22;34730;50.894;6.052;2022-07-23T00:46:24;16.20;99.90
48920;DHT22;34730;50.894;6.052;2022-07-23T00:46:57;16.20;99.90
48920;DHT22;34730;50.894;6.052;2022-07-23T00:47:28;16.20;99.90
48920;DHT22;34730;50.894;6.052;2022-07-23T00:48:00;16.10;99.90
48920;DHT22;34730;50.894;6.052;2022-07-23T00:48:33;16.10;99.90
48920;DHT22;34730;50.894;6.052;2022-07-23T00:49:08;16.10;99.90
48920;DHT22;34730;50.894;6.052;2022-07-23T00:49:38;16.10;99.90
48920;DHT22;34730;50.894;6.052;2022-07-23T00:50:10;16.10;99.90
48920;DHT22;34730;50.894;6.052;2022-07-23T00:50:43;16.10;99.90
48920;DHT22;34730;50.894;6.052;2022-07-23T00:51:17;16.10;99.90
48920;DHT22;34730;50.894;6.052;2022-07-23T00:51:49;16.10;99.90
48920;DHT22;34730;50.894;6.052;2022-07-23T00:52:20;16.00;99.90
48920;DHT22;34730;50.894;6.052;2022-07-23T00:52:52;16.00;99.90
48920;DHT22;34730;50.894;6.052;2022-07-23T00:53:23;16.00;99.90
48920;DHT22;34730;50.894;6.052;2022-07-23T00:53:54;16.00;99.90
48920;DHT22;34730;50.894;6.052;2022-07-23T00:54:26;16.00;99.90
48920;DHT22;34730;50.894;6.052;2022-07-23T00:54:57;16.10;99.90
48920;DHT22;34730;50.894;6.052;2022-07-23T00:55:28;16.10;99.90
48920;DHT22;34730;50.894;6.052;2022-07-23T00:55:59;16.00;99.90
48920;DHT22;34730;50.894;6.052;2022-07-23T00:56:30;16.00;99.90
48920;DHT22;34730;50.894;6.052;2022-07-23T00:57:03;16.00;99.90
48920;DHT22;34730;50.894;6.052;2022-07-23T00:57:34;16.00;99.90
48920;DHT22;34730;50.894;6.052;2022-07-23T00:58:06;16.00;99.90
48920;DHT22;34730;50.894;6.052;2022-07-23T00:58:38;16.00;99.90
48920;DHT22;34730;50.894;6.052;2022-07-23T00:59:10;16.00;99.90
48920;DHT22;34730;50.894;6.052;2022-07-23T00:59:42;16.00;99.90
48920;DHT22;34730;50.894;6.052;2022-07-23T01:00:15;16.00;99.90
48920;DHT22;34730;50.894;6.052;2022-07-23T01:00:46;15.90;99.90
48920;DHT22;34730;50.894;6.052;2022-07-23T01:01:17;16.00;99.90
48920;DHT22;34730;50.894;6.052;2022-07-23T01:01:50;15.90;99.90
48920;DHT22;34730;50.894;6.052;2022-07-23T01:02:21;15.90;99.90
48920;DHT22;34730;50.894;6.052;2022-07-23T01:02:51;15.90;99.90
48920;DHT22;34730;50.894;6.052;2022-07-23T01:03:22;15.90;99.90
48920;DHT22;34730;50.894;6.052;2022-07-23T01:03:53;15.90;99.90
48920;DHT22;34730;50.894;6.052;2022-07-23T01:04:25;15.90;99.90
48920;DHT22;34730;50.894;6.052;2022-07-23T01:04:56;15.90;99.90
48920;DHT22;34730;50.894;6.052;2022-07-23T01:05:27;15.90;99.90
48920;DHT22;34730;50.894;6.052;2022-07-23T01:05:58;15.90;99.90
48920;DHT22;34730;50.894;6.052;2022-07-23T01:06:34;15.90;99.90
48920;DHT22;34730;50.894;6.052;2022-07-23T01:07:05;15.90;99.90
48920;DHT22;34730;50.894;6.052;2022-07-23T01:07:37;15.80;99.90
48920;DHT22;34730;50.894;6.052;2022-07-23T01:08:08;15.80;99.90
48920;DHT22;34730;50.894;6.052;2022-07-23T01:08:39;15.80;99.90
48920;DHT22;34730;50.894;6.052;2022-07-23T01:09:10;15.80;99.90
48920;DHT22;34730;50.894;6.052;2022-07-23T01:09:42;15.80;99.90
48920;DHT22;34730;50.894;6.052;2022-07-23T01:10:16;15.80;99.90
48920;DHT22;34730;50.894;6.052;2022-07-23T01:11:03;15.80;99.90
48920;DHT22;34730;50.894;6.052;2022-07-23T01:11:35;15.80;99.90
48920;DHT22;34730;50.894;6.052;2022-07-23T01:12:10;15.80;99.90
48920;DHT22;34730;50.894;6.052;2022-07-23T01:12:41;15.80;99.90
48920;DHT22;34730;50.894;6.052;2022-07-23T01:13:11;15.80;99.90
48920;DHT22;34730;50.894;6.052;2022-07-23T01:13:43;15.80;99.90
48920;DHT22;34730;50.894;6.052;2022-07-23T01:14:17;15.80;99.90
48920;DHT22;34730;50.894;6.052;2022-07-23T01:14:55;15.80;99.90
48920;DHT22;34730;50.894;6.052;2022-07-23T01:15:29;15.80;99.90
48920;DHT22;34730;50.894;6.052;2022-07-23T01:16:00;15.80;99.90
48920;DHT22;34730;50.894;6.052;2022-07-23T01:16:31;15.80;99.90
48920;DHT22;34730;50.894;6.052;2022-07-23T01:17:04;15.80;99.90
48920;DHT22;34730;50.894;6.052;2022-07-23T01:17:36;15.80;99.90
48920;DHT22;34730;50.894;6.052;2022-07-23T01:18:07;15.80;99.90
48920;DHT22;34730;50.894;6.052;2022-07-23T01:18:40;15.80;99.90
48920;DHT22;34730;50.894;6.052;2022-07-23T01:19:12;15.80;99.90
48920;DHT22;34730;50.894;6.052;2022-07-23T01:19:44;15.80;99.90
48920;DHT22;34730;50.894;6.052;2022-07-23T01:20:15;15.70;99.90
48920;DHT22;34730;50.894;6.052;2022-07-23T01:20:47;15.70;99.90
48920;DHT22;34730;50.894;6.052;2022-07-23T01:21:19;15.70;99.90
48920;DHT22;34730;50.894;6.052;2022-07-23T01:21:51;15.70;99.90
48920;DHT22;34730;50.894;6.052;2022-07-23T01:22:22;15.60;99.90
48920;DHT22;34730;50.894;6.052;2022-07-23T01:22:54;15.60;99.90
48920;DHT22;34730;50.894;6.052;2022-07-23T01:23:29;15.60;99.90
48920;DHT22;34730;50.894;6.052;2022-07-23T01:24:07;15.60;99.90
48920;DHT22;34730;50.894;6.052;2022-07-23T01:24:41;15.60;99.90
48920;DHT22;34730;50.894;6.052;2022-07-23T01:25:12;15.60;99.90
48920;DHT22;34730;50.894;6.052;2022-07-23T01:25:51;15.60;99.90
48920;DHT22;34730;50.894;6.052;2022-07-23T01:26:22;15.60;99.90
48920;DHT22;34730;50.894;6.052;2022-07-23T01:26:53;15.60;99.90
48920;DHT22;34730;50.894;6.052;2022-07-23T01:27:24;15.60;99.90
48920;DHT22;34730;50.894;6.052;2022-07-23T01:28:02;15.50;99.90
48920;DHT22;34730;50.894;6.052;2022-07-23T01:28:35;15.50;99.90
48920;DHT22;34730;50.894;6.052;2022-07-23T01:29:08;15.50;99.90
48920;DHT22;34730;50.894;6.052;2022-07-23T01:29:42;15.50;99.90
48920;DHT22;34730;50.894;6.052;2022-07-23T01:30:19;15.50;99.90
48920;DHT22;34730;50.894;6.052;2022-07-23T01:30:51;15.50;99.90
48920;DHT22;34730;50.894;6.052;2022-07-23T01:31:21;15.50;99.90
48920;DHT22;34730;50.894;6.052;2022-07-23T01:31:53;15.50;99.90
48920;DHT22;34730;50.894;6.052;2022-07-23T01:32:24;15.50;99.90
48920;DHT22;34730;50.894;6.052;2022-07-23T01:32:56;15.50;99.90
48920;DHT22;34730;50.894;6.052;2022-07-23T01:33:27;15.50;99.90
48920;DHT22;34730;50.894;6.052;2022-07-23T01:34:00;15.50;99.90
48920;DHT22;34730;50.894;6.052;2022-07-23T01:34:33;15.60;99.90
48920;DHT22;34730;50.894;6.052;2022-07-23T01:35:05;15.60;99.90
48920;DHT22;34730;50.894;6.052;2022-07-23T01:35:37;15.60;99.90
48920;DHT22;34730;50.894;6.052;2022-07-23T01:36:10;15.60;99.90
48920;DHT22;34730;50.894;6.052;2022-07-23T01:36:41;15.60;99.90
48920;DHT22;34730;50.894;6.052;2022-07-23T01:37:14;15.50;99.90
48920;DHT22;34730;50.894;6.052;2022-07-23T01:37:47;15.50;99.90
48920;DHT22;34730;50.894;6.052;2022-07-23T01:38:19;15.50;99.90
48920;DHT22;34730;50.894;6.052;2022-07-23T01:38:51;15.50;99.90
48920;DHT22;34730;50.894;6.052;2022-07-23T01:39:22;15.50;99.90
48920;DHT22;34730;50.894;6.052;2022-07-23T01:39:57;15.50;99.90
48920;DHT22;34730;50.894;6.052;2022-07-23T01:40:29;15.50;99.90
48920;DHT22;34730;50.894;6.052;2022-07-23T01:41:01;15.50;99.90
48920;DHT22;34730;50.894;6.052;2022-07-23T01:41:37;15.50;99.90
48920;DHT22;34730;50.894;6.052;2022-07-23T01:42:09;15.50;99.90
48920;DHT22;34730;50.894;6.052;2022-07-23T01:42:42;15.50;99.90
48920;DHT22;34730;50.894;6.052;2022-07-23T01:43:15;15.50;99.90
48920;DHT22;34730;50.894;6.052;2022-07-23T01:43:46;15.50;99.90
48920;DHT22;34730;50.894;6.052;2022-07-23T01:44:17;15.50;99.90
48920;DHT22;34730;50.894;6.052;2022-07-23T01:44:48;15.50;99.90
48920;DHT22;34730;50.894;6.052;2022-07-23T01:45:23;15.50;99.90
48920;DHT22;34730;50.894;6.052;2022-07-23T01:45:56;15.40;99.90
48920;DHT22;34730;50.894;6.052;2022-07-23T01:46:29;15.40;99.90
48920;DHT22;34730;50.894;6.052;2022-07-23T01:47:01;15.50;99.90
48920;DHT22;34730;50.894;6.052;2022-07-23T01:47:32;15.40;99.90
48920;DHT22;34730;50.894;6.052;2022-07-23T01:48:04;15.40;99.90
48920;DHT22;34730;50.894;6.052;2022-07-23T01:48:36;15.40;99.90
48920;DHT22;34730;50.894;6.052;2022-07-23T01:49:41;15.40;99.90
48920;DHT22;34730;50.894;6.052;2022-07-23T01:50:15;15.40;99.90
48920;DHT22;34730;50.894;6.052;2022-07-23T01:50:50;15.40;99.90
48920;DHT22;34730;50.894;6.052;2022-07-23T01:51:33;15.40;99.90
48920;DHT22;34730;50.894;6.052;2022-07-23T01:52:11;15.30;99.90
48920;DHT22;34730;50.894;6.052;2022-07-23T01:52:48;15.30;99.90
48920;DHT22;34730;50.894;6.052;2022-07-23T01:53:19;15.40;99.90
48920;DHT22;34730;50.894;6.052;2022-07-23T01:53:51;15.30;99.90
48920;DHT22;34730;50.894;6.052;2022-07-23T01:54:24;15.30;99.90
48920;DHT22;34730;50.894;6.052;2022-07-23T01:54:58;15.30;99.90
48920;DHT22;34730;50.894;6.052;2022-07-23T01:55:29;15.30;99.90
48920;DHT22;34730;50.894;6.052;2022-07-23T01:56:03;15.30;99.90
48920;DHT22;34730;50.894;6.052;2022-07-23T01:56:35;15.30;99.90
48920;DHT22;34730;50.894;6.052;2022-07-23T01:57:07;15.30;99.90
48920;DHT22;34730;50.894;6.052;2022-07-23T01:57:38;15.30;99.90
48920;DHT22;34730;50.894;6.052;2022-07-23T01:58:10;15.30;99.90
48920;DHT22;34730;50.894;6.052;2022-07-23T01:58:43;15.20;99.90
48920;DHT22;34730;50.894;6.052;2022-07-23T01:59:14;15.20;99.90
48920;DHT22;34730;50.894;6.052;2022-07-23T01:59:45;15.20;99.90
48920;DHT22;34730;50.894;6.052;2022-07-23T02:00:16;15.20;99.90
48920;DHT22;34730;50.894;6.052;2022-07-23T02:00:53;15.20;99.90
48920;DHT22;34730;50.894;6.052;2022-07-23T02:01:25;15.20;99.90
48920;DHT22;34730;50.894;6.052;2022-07-23T02:01:55;15.20;99.90
48920;DHT22;34730;50.894;6.052;2022-07-23T02:02:26;15.20;99.90
48920;DHT22;34730;50.894;6.052;2022-07-23T02:02:58;15.20;99.90
48920;DHT22;34730;50.894;6.052;2022-07-23T02:03:29;15.20;99.90
48920;DHT22;34730;50.894;6.052;2022-07-23T02:04:04;15.20;99.90
48920;DHT22;34730;50.894;6.052;2022-07-23T02:04:37;15.10;99.90
48920;DHT22;34730;50.894;6.052;2022-07-23T02:05:08;15.20;99.90
48920;DHT22;34730;50.894;6.052;2022-07-23T02:05:39;15.20;99.90
48920;DHT22;34730;50.894;6.052;2022-07-23T02:06:11;15.20;99.90
48920;DHT22;34730;50.894;6.052;2022-07-23T02:06:42;15.20;99.90
48920;DHT22;34730;50.894;6.052;2022-07-23T02:07:14;15.10;99.90
48920;DHT22;34730;50.894;6.052;2022-07-23T02:07:45;15.10;99.90
48920;DHT22;34730;50.894;6.052;2022-07-23T02:08:16;15.10;99.90
48920;DHT22;34730;50.894;6.052;2022-07-23T02:08:56;15.10;99.90
48920;DHT22;34730;50.894;6.052;2022-07-23T02:09:33;15.10;99.90
48920;DHT22;34730;50.894;6.052;2022-07-23T02:10:05;15.10;99.90
48920;DHT22;34730;50.894;6.052;2022-07-23T02:10:36;15.10;99.90
48920;DHT22;34730;50.894;6.052;2022-07-23T02:11:08;15.10;99.90
48920;DHT22;34730;50.894;6.052;2022-07-23T02:11:39;15.10;99.90
48920;DHT22;34730;50.894;6.052;2022-07-23T02:12:12;15.10;99.90
48920;DHT22;34730;50.894;6.052;2022-07-23T02:12:44;15.10;99.90
48920;DHT22;34730;50.894;6.052;2022-07-23T02:13:18;15.00;99.90
48920;DHT22;34730;50.894;6.052;2022-07-23T02:13:49;15.10;99.90
48920;DHT22;34730;50.894;6.052;2022-07-23T02:14:19;15.00;99.90
48920;DHT22;34730;50.894;6.052;2022-07-23T02:14:50;15.10;99.90
48920;DHT22;34730;50.894;6.052;2022-07-23T02:15:21;15.00;99.90
48920;DHT22;34730;50.894;6.052;2022-07-23T02:15:53;15.00;99.90
48920;DHT22;34730;50.894;6.052;2022-07-23T02:16:23;15.00;99.90
48920;DHT22;34730;50.894;6.052;2022-07-23T02:16:57;15.00;99.90
48920;DHT22;34730;50.894;6.052;2022-07-23T02:17:28;15.00;99.90
48920;DHT22;34730;50.894;6.052;2022-07-23T02:17:59;15.00;99.90
48920;DHT22;34730;50.894;6.052;2022-07-23T02:18:32;15.00;99.90
48920;DHT22;34730;50.894;6.052;2022-07-23T02:19:04;15.00;99.90
48920;DHT22;34730;50.894;6.052;2022-07-23T02:19:35;15.10;99.90
48920;DHT22;34730;50.894;6.052;2022-07-23T02:20:09;15.00;99.90
48920;DHT22;34730;50.894;6.052;2022-07-23T02:20:41;15.00;99.90
48920;DHT22;34730;50.894;6.052;2022-07-23T02:21:12;15.00;99.90
48920;DHT22;34730;50.894;6.052;2022-07-23T02:21:43;15.00;99.90
48920;DHT22;34730;50.894;6.052;2022-07-23T02:22:14;15.10;99.90
48920;DHT22;34730;50.894;6.052;2022-07-23T02:22:45;15.10;99.90
48920;DHT22;34730;50.894;6.052;2022-07-23T02:23:16;15.10;99.90
48920;DHT22;34730;50.894;6.052;2022-07-23T02:23:47;15.10;99.90
48920;DHT22;34730;50.894;6.052;2022-07-23T02:24:18;15.10;99.90
48920;DHT22;34730;50.894;6.052;2022-07-23T02:24:49;15.10;99.90
48920;DHT22;34730;50.894;6.052;2022-07-23T02:25:19;15.00;99.90
48920;DHT22;34730;50.894;6.052;2022-07-23T02:25:50;15.00;99.90
48920;DHT22;34730;50.894;6.052;2022-07-23T02:26:21;15.00;99.90
48920;DHT22;34730;50.894;6.052;2022-07-23T02:26:54;15.00;99.90
48920;DHT22;34730;50.894;6.052;2022-07-23T02:27:25;15.00;99.90
48920;DHT22;34730;50.894;6.052;2022-07-23T02:27:57;15.10;99.90
48920;DHT22;34730;50.894;6.052;2022-07-23T02:28:28;15.00;99.90
48920;DHT22;34730;50.894;6.052;2022-07-23T02:28:59;15.00;99.90
48920;DHT22;34730;50.894;6.052;2022-07-23T02:29:32;15.00;99.90
48920;DHT22;34730;50.894;6.052;2022-07-23T02:30:04;15.10;99.90
48920;DHT22;34730;50.894;6.052;2022-07-23T02:30:37;15.10;99.90
48920;DHT22;34730;50.894;6.052;2022-07-23T02:31:10;15.10;99.90
48920;DHT22;34730;50.894;6.052;2022-07-23T02:31:41;15.00;99.90
48920;DHT22;34730;50.894;6.052;2022-07-23T02:32:12;15.00;99.90
48920;DHT22;34730;50.894;6.052;2022-07-23T02:32:48;15.00;99.90
48920;DHT22;34730;50.894;6.052;2022-07-23T02:33:18;15.00;99.90
48920;DHT22;34730;50.894;6.052;2022-07-23T02:33:53;15.00;99.90
48920;DHT22;34730;50.894;6.052;2022-07-23T02:34:24;15.00;99.90
48920;DHT22;34730;50.894;6.052;2022-07-23T02:34:55;15.00;99.90
48920;DHT22;34730;50.894;6.052;2022-07-23T02:35:26;15.00;99.90
48920;DHT22;34730;50.894;6.052;2022-07-23T02:35:57;15.00;99.90
48920;DHT22;34730;50.894;6.052;2022-07-23T02:36:28;15.00;99.90
48920;DHT22;34730;50.894;6.052;2022-07-23T02:36:59;15.00;99.90
48920;DHT22;34730;50.894;6.052;2022-07-23T02:37:34;15.00;99.90
48920;DHT22;34730;50.894;6.052;2022-07-23T02:38:08;15.00;99.90
48920;DHT22;34730;50.894;6.052;2022-07-23T02:38:40;15.00;99.90
48920;DHT22;34730;50.894;6.052;2022-07-23T02:39:11;15.00;99.90
48920;DHT22;34730;50.894;6.052;2022-07-23T02:39:43;15.00;99.90
48920;DHT22;34730;50.894;6.052;2022-07-23T02:40:14;15.00;99.90
48920;DHT22;34730;50.894;6.052;2022-07-23T02:40:46;15.00;99.90
48920;DHT22;34730;50.894;6.052;2022-07-23T02:41:17;15.00;99.90
48920;DHT22;34730;50.894;6.052;2022-07-23T02:41:48;15.00;99.90
48920;DHT22;34730;50.894;6.052;2022-07-23T02:42:19;14.90;99.90
48920;DHT22;34730;50.894;6.052;2022-07-23T02:42:51;14.90;99.90
48920;DHT22;34730;50.894;6.052;2022-07-23T02:43:24;14.90;99.90
48920;DHT22;34730;50.894;6.052;2022-07-23T02:43:57;14.90;99.90
48920;DHT22;34730;50.894;6.052;2022-07-23T02:44:28;14.90;99.90
48920;DHT22;34730;50.894;6.052;2022-07-23T02:45:00;14.90;99.90
48920;DHT22;34730;50.894;6.052;2022-07-23T02:45:32;14.90;99.90
48920;DHT22;34730;50.894;6.052;2022-07-23T02:46:03;14.90;99.90
48920;DHT22;34730;50.894;6.052;2022-07-23T02:46:35;14.90;99.90
48920;DHT22;34730;50.894;6.052;2022-07-23T02:47:07;14.90;99.90
48920;DHT22;34730;50.894;6.052;2022-07-23T02:47:38;14.90;99.90
48920;DHT22;34730;50.894;6.052;2022-07-23T02:48:09;14.90;99.90
48920;DHT22;34730;50.894;6.052;2022-07-23T02:48:48;14.90;99.90
48920;DHT22;34730;50.894;6.052;2022-07-23T02:49:19;14.90;99.90
48920;DHT22;34730;50.894;6.052;2022-07-23T02:49:52;14.90;99.90
48920;DHT22;34730;50.894;6.052;2022-07-23T02:50:25;14.90;99.90
48920;DHT22;34730;50.894;6.052;2022-07-23T02:50:59;14.80;99.90
48920;DHT22;34730;50.894;6.052;2022-07-23T02:51:36;14.80;99.90
48920;DHT22;34730;50.894;6.052;2022-07-23T02:52:10;14.80;99.90
48920;DHT22;34730;50.894;6.052;2022-07-23T02:52:41;14.80;99.90
48920;DHT22;34730;50.894;6.052;2022-07-23T02:53:15;14.80;99.90
48920;DHT22;34730;50.894;6.052;2022-07-23T02:53:47;14.80;99.90
48920;DHT22;34730;50.894;6.052;2022-07-23T02:54:18;14.80;99.90
48920;DHT22;34730;50.894;6.052;2022-07-23T02:54:49;14.80;99.90
48920;DHT22;34730;50.894;6.052;2022-07-23T02:55:23;14.80;99.90
48920;DHT22;34730;50.894;6.052;2022-07-23T02:55:54;14.80;99.90
48920;DHT22;34730;50.894;6.052;2022-07-23T02:56:26;14.80;99.90
48920;DHT22;34730;50.894;6.052;2022-07-23T02:56:57;14.80;99.90
48920;DHT22;34730;50.894;6.052;2022-07-23T02:57:27;14.80;99.90
48920;DHT22;34730;50.894;6.052;2022-07-23T02:57:58;14.70;99.90
48920;DHT22;34730;50.894;6.052;2022-07-23T02:58:29;14.70;99.90
48920;DHT22;34730;50.894;6.052;2022-07-23T02:59:00;14.70;99.90
48920;DHT22;34730;50.894;6.052;2022-07-23T02:59:31;14.80;99.90
48920;DHT22;34730;50.894;6.052;2022-07-23T03:00:04;14.70;99.90
48920;DHT22;34730;50.894;6.052;2022-07-23T03:00:36;14.70;99.90
48920;DHT22;34730;50.894;6.052;2022-07-23T03:01:07;14.70;99.90
48920;DHT22;34730;50.894;6.052;2022-07-23T03:01:38;14.70;99.90
48920;DHT22;34730;50.894;6.052;2022-07-23T03:02:11;14.70;99.90
48920;DHT22;34730;50.894;6.052;2022-07-23T03:02:42;14.70;99.90
48920;DHT22;34730;50.894;6.052;2022-07-23T03:03:13;14.70;99.90
48920;DHT22;34730;50.894;6.052;2022-07-23T03:03:46;14.70;99.90
48920;DHT22;34730;50.894;6.052;2022-07-23T03:04:16;14.70;99.90
48920;DHT22;34730;50.894;6.052;2022-07-23T03:04:51;14.80;99.90
48920;DHT22;34730;50.894;6.052;2022-07-23T03:05:23;14.70;99.90
48920;DHT22;34730;50.894;6.052;2022-07-23T03:05:53;14.80;99.90
48920;DHT22;34730;50.894;6.052;2022-07-23T03:06:24;14.70;99.90
48920;DHT22;34730;50.894;6.052;2022-07-23T03:06:55;14.70;99.90
48920;DHT22;34730;50.894;6.052;2022-07-23T03:07:26;14.70;99.90
48920;DHT22;34730;50.894;6.052;2022-07-23T03:07:58;14.70;99.90
48920;DHT22;34730;50.894;6.052;2022-07-23T03:08:29;14.60;99.90
48920;DHT22;34730;50.894;6.052;2022-07-23T03:09:00;14.60;99.90
48920;DHT22;34730;50.894;6.052;2022-07-23T03:09:32;14.60;99.90
48920;DHT22;34730;50.894;6.052;2022-07-23T03:10:03;14.60;99.90
48920;DHT22;34730;50.894;6.052;2022-07-23T03:10:33;14.60;99.90
48920;DHT22;34730;50.894;6.052;2022-07-23T03:11:05;14.70;99.90
48920;DHT22;34730;50.894;6.052;2022-07-23T03:11:41;14.70;99.90
48920;DHT22;34730;50.894;6.052;2022-07-23T03:12:12;14.70;99.90
48920;DHT22;34730;50.894;6.052;2022-07-23T03:12:43;14.70;99.90
48920;DHT22;34730;50.894;6.052;2022-07-23T03:13:14;14.70;99.90
48920;DHT22;34730;50.894;6.052;2022-07-23T03:13:44;14.70;99.90
48920;DHT22;34730;50.894;6.052;2022-07-23T03:14:15;14.70;99.90
48920;DHT22;34730;50.894;6.052;2022-07-23T03:14:49;14.70;99.90
48920;DHT22;34730;50.894;6.052;2022-07-23T03:15:22;14.60;99.90
48920;DHT22;34730;50.894;6.052;2022-07-23T03:15:52;14.60;99.90
48920;DHT22;34730;50.894;6.052;2022-07-23T03:16:24;14.60;99.90
48920;DHT22;34730;50.894;6.052;2022-07-23T03:16:55;14.60;99.90
48920;DHT22;34730;50.894;6.052;2022-07-23T03:17:26;14.60;99.90
48920;DHT22;34730;50.894;6.052;2022-07-23T03:17:57;14.60;99.90
48920;DHT22;34730;50.894;6.052;2022-07-23T03:18:30;14.60;99.90
48920;DHT22;34730;50.894;6.052;2022-07-23T03:19:03;14.60;99.90
48920;DHT22;34730;50.894;6.052;2022-07-23T03:19:36;14.60;99.90
48920;DHT22;34730;50.894;6.052;2022-07-23T03:20:15;14.60;99.90
48920;DHT22;34730;50.894;6.052;2022-07-23T03:20:45;14.60;99.90
48920;DHT22;34730;50.894;6.052;2022-07-23T03:21:19;14.60;99.90
48920;DHT22;34730;50.894;6.052;2022-07-23T03:21:50;14.60;99.90
48920;DHT22;34730;50.894;6.052;2022-07-23T03:22:23;14.60;99.90
48920;DHT22;34730;50.894;6.052;2022-07-23T03:22:56;14.60;99.90